Time;durP1;ratioP1;P1;durP2;ratioP2;P2;SDS_P1;SDS_P2;PMS_P1;PMS_P2;Temp;Humidity;BMP_temperature;BMP_pressure;BME280_temperature;BME280_humidity;BME280_pressure;Samples;Min_cycle;Max_cycle;Signal;HPM_P1;HPM_P2
2023/01/25 00:02:03;;;;;;;21.00;10.67;;;;;;;2.75;100.00;101366.59;5070868;28;20288;-75
2023/01/25 00:04:30;;;;;;;20.00;10.43;;;;;;;2.75;100.00;101364.81;5070723;28;20029;-74
2023/01/25 00:06:55;;;;;;;20.53;10.57;;;;;;;2.62;100.00;101358.56;5070727;28;20024;-74
2023/01/25 00:09:23;;;;;;;21.03;10.47;;;;;;;2.72;100.00;101359.69;5070718;28;20280;-74
2023/01/25 00:11:49;;;;;;;21.70;11.00;;;;;;;2.71;100.00;101365.06;5070536;28;20078;-75
2023/01/25 00:14:15;;;;;;;17.80;10.00;;;;;;;2.77;100.00;101359.44;5070689;28;20292;-75
2023/01/25 00:16:41;;;;;;;21.00;11.10;;;;;;;2.65;100.00;101357.53;5074148;28;20322;-75
2023/01/25 00:19:08;;;;;;;20.03;10.37;;;;;;;2.76;100.00;101357.72;5074152;28;20253;-75
2023/01/25 00:21:35;;;;;;;19.50;9.97;;;;;;;2.76;100.00;101352.47;5074010;28;20269;-74
2023/01/25 00:24:02;;;;;;;18.50;9.80;;;;;;;2.86;100.00;101354.44;5074081;28;20265;-75
2023/01/25 00:26:31;;;;;;;18.37;10.40;;;;;;;2.84;100.00;101355.47;5073987;28;20289;-75
2023/01/25 00:28:57;;;;;;;20.03;9.90;;;;;;;2.82;100.00;101352.91;5055822;28;20354;-74
2023/01/25 00:31:36;;;;;;;20.17;9.97;;;;;;;2.85;100.00;101363.31;5073864;28;20274;-75
2023/01/25 00:34:25;;;;;;;20.00;9.73;;;;;;;2.85;100.00;101371.22;5073790;28;20029;-74
2023/01/25 00:36:56;;;;;;;18.77;9.17;;;;;;;2.87;100.00;101357.94;5073588;28;20268;-75
2023/01/25 00:39:24;;;;;;;21.77;10.50;;;;;;;2.91;100.00;101370.00;5055795;28;20277;-75
2023/01/25 00:41:49;;;;;;;22.50;10.70;;;;;;;2.90;100.00;101369.13;5073530;28;20640;-74
2023/01/25 00:44:15;;;;;;;20.07;10.50;;;;;;;2.84;100.00;101373.94;5055722;28;20253;-74
2023/01/25 00:46:40;;;;;;;20.03;11.00;;;;;;;2.76;100.00;101371.78;5073505;28;20036;-75
2023/01/25 00:49:21;;;;;;;23.03;11.90;;;;;;;2.65;100.00;101368.94;5073542;28;20752;-74
2023/01/25 00:51:47;;;;;;;24.47;12.27;;;;;;;2.63;100.00;101362.03;5073520;28;20028;-75
2023/01/25 00:54:13;;;;;;;21.17;10.93;;;;;;;2.66;100.00;101356.56;5073509;28;20271;-74
2023/01/25 00:56:38;;;;;;;21.97;12.03;;;;;;;2.60;100.00;101349.03;5073285;28;20253;-75
2023/01/25 00:59:04;;;;;;;22.00;11.23;;;;;;;2.82;100.00;101357.34;5073219;28;20052;-75
2023/01/25 01:01:29;;;;;;;21.73;11.07;;;;;;;2.82;100.00;101357.34;5073343;28;20121;-74
2023/01/25 01:03:55;;;;;;;22.87;11.53;;;;;;;2.66;100.00;101361.84;5073246;28;20039;-75
2023/01/25 01:06:20;;;;;;;22.20;11.87;;;;;;;2.67;100.00;101363.53;5055473;28;20029;-75
2023/01/25 01:08:46;;;;;;;25.70;12.47;;;;;;;2.72;100.00;101358.84;5073157;28;20039;-75
2023/01/25 01:11:12;;;;;;;21.50;11.30;;;;;;;2.61;100.00;101345.44;5073354;28;20100;-74
2023/01/25 01:13:38;;;;;;;22.43;12.33;;;;;;;2.70;100.00;101356.31;5072983;28;20040;-74
2023/01/25 01:16:12;;;;;;;23.50;12.17;;;;;;;2.57;100.00;101346.56;5073210;28;20320;-75
2023/01/25 01:18:42;;;;;;;22.93;11.93;;;;;;;2.57;100.00;101363.25;5055189;28;20268;-75
2023/01/25 01:21:08;;;;;;;24.80;12.00;;;;;;;2.65;100.00;101354.88;5073003;28;20363;-75
2023/01/25 01:23:34;;;;;;;24.10;12.20;;;;;;;2.59;100.00;101347.31;5073052;28;20253;-74
2023/01/25 01:26:05;;;;;;;22.73;12.20;;;;;;;2.58;100.00;101362.31;5072976;28;20110;-74
2023/01/25 01:28:32;;;;;;;22.53;11.43;;;;;;;2.70;100.00;101361.56;5072787;28;20311;-75
2023/01/25 01:31:03;;;;;;;25.70;12.27;;;;;;;2.82;100.00;101366.13;5072850;28;20261;-74
2023/01/25 01:33:28;;;;;;;21.90;11.30;;;;;;;2.89;100.00;101362.16;5054742;28;20272;-75
2023/01/25 01:35:54;;;;;;;20.97;10.67;;;;;;;2.82;100.00;101358.19;5054481;28;20261;-74
2023/01/25 01:38:19;;;;;;;23.07;12.03;;;;;;;2.78;100.00;101361.97;5072845;28;20020;-75
2023/01/25 01:40:46;;;;;;;25.60;12.27;;;;;;;2.81;100.00;101358.28;5072768;28;20036;-75
2023/01/25 01:43:23;;;;;;;22.47;11.40;;;;;;;2.73;100.00;101350.00;5072665;28;20032;-75
2023/01/25 01:45:51;;;;;;;23.00;11.80;;;;;;;2.72;100.00;101358.84;5072559;28;20348;-75
2023/01/25 01:48:22;;;;;;;22.00;11.23;;;;;;;2.80;100.00;101353.94;5071715;28;20621;-75
2023/01/25 01:50:52;;;;;;;24.80;11.93;;;;;;;2.63;100.00;101344.41;5072479;28;20296;-74
2023/01/25 01:53:19;;;;;;;23.77;11.13;;;;;;;2.64;100.00;101354.03;5072209;28;20261;-75
2023/01/25 01:55:45;;;;;;;23.20;12.10;;;;;;;2.70;100.00;101355.44;5054222;28;20265;-74
2023/01/25 01:58:11;;;;;;;23.33;11.93;;;;;;;2.80;100.00;101353.94;5071996;28;20284;-74
2023/01/25 02:00:39;;;;;;;22.63;11.60;;;;;;;2.77;100.00;101360.25;5072151;28;20273;-74
2023/01/25 02:03:05;;;;;;;24.33;11.53;;;;;;;2.76;100.00;101355.94;5072230;28;20490;-74
2023/01/25 02:05:31;;;;;;;19.93;10.13;;;;;;;2.83;100.00;101353.78;5072133;28;20297;-74
2023/01/25 02:07:56;;;;;;;21.70;11.70;;;;;;;2.88;100.00;101352.53;5072177;28;20028;-74
2023/01/25 02:10:25;;;;;;;20.80;10.83;;;;;;;2.81;100.00;101356.50;5072052;28;20394;-74
2023/01/25 02:12:54;;;;;;;23.83;12.10;;;;;;;2.76;100.00;101347.19;5072002;28;20426;-74
2023/01/25 02:15:20;;;;;;;20.53;11.13;;;;;;;2.77;100.00;101354.16;5053952;28;20257;-74
2023/01/25 02:17:47;;;;;;;21.27;11.57;;;;;;;2.76;100.00;101355.09;5071860;28;20838;-74
2023/01/25 02:20:37;;;;;;;25.60;11.67;;;;;;;2.78;100.00;101358.47;5071817;28;20079;-74
2023/01/25 02:23:42;;;;;;;23.60;12.43;;;;;;;2.67;100.00;101350.34;5071977;28;20332;-74
2023/01/25 02:26:08;;;;;;;25.93;12.97;;;;;;;2.60;100.00;101352.50;5071763;28;20257;-74
2023/01/25 02:28:48;;;;;;;22.87;11.60;;;;;;;2.68;100.00;101341.50;5053635;28;20372;-74
2023/01/25 02:31:14;;;;;;;23.70;11.67;;;;;;;2.68;100.00;101352.91;5071756;28;20269;-74
2023/01/25 02:33:40;;;;;;;22.90;12.07;;;;;;;2.75;100.00;101351.59;5071568;28;20268;-74
2023/01/25 02:36:05;;;;;;;24.80;12.40;;;;;;;2.83;100.00;101349.34;5071679;28;20031;-74
2023/01/25 02:38:38;;;;;;;23.23;11.53;;;;;;;2.81;100.00;101342.44;5071122;28;20028;-74
2023/01/25 02:41:10;;;;;;;23.13;11.70;;;;;;;2.82;100.00;101346.78;5071535;28;20526;-74
2023/01/25 02:43:36;;;;;;;24.23;12.33;;;;;;;2.73;100.00;101342.91;5071527;28;20371;-75
2023/01/25 02:46:30;;;;;;;25.40;13.03;;;;;;;2.73;100.00;101339.44;5071388;28;20261;-75
2023/01/25 02:48:58;;;;;;;23.92;11.95;;;;;;;2.72;100.00;101343.00;5071126;28;20331;-74
2023/01/25 02:51:26;;;;;;;25.00;12.07;;;;;;;2.70;100.00;101334.31;5071386;28;20032;-74
2023/01/25 02:53:52;;;;;;;25.60;12.53;;;;;;;2.76;100.00;101331.34;5071231;28;20265;-75
2023/01/25 02:56:18;;;;;;;23.00;12.17;;;;;;;2.72;100.00;101338.59;5071356;28;20609;-75
2023/01/25 02:58:44;;;;;;;24.73;12.73;;;;;;;2.59;100.00;101323.56;5070946;28;20407;-75
2023/01/25 03:01:10;;;;;;;23.63;12.30;;;;;;;2.71;100.00;101326.31;5071296;28;20372;-74
2023/01/25 03:03:36;;;;;;;24.53;12.10;;;;;;;2.78;100.00;101326.78;5070944;28;20039;-74
2023/01/25 03:06:01;;;;;;;28.17;13.10;;;;;;;2.72;100.00;101319.25;5071353;28;20266;-74
2023/01/25 03:08:27;;;;;;;23.90;12.40;;;;;;;2.64;100.00;101314.44;5053211;28;20024;-75
2023/01/25 03:10:57;;;;;;;25.67;13.10;;;;;;;2.61;100.00;101298.78;5071138;28;20025;-75
2023/01/25 03:13:24;;;;;;;23.80;12.27;;;;;;;2.63;100.00;101299.56;5071184;28;20032;-74
2023/01/25 03:15:50;;;;;;;24.83;12.40;;;;;;;2.71;100.00;101299.06;5071038;28;20269;-75
2023/01/25 03:18:15;;;;;;;22.63;12.47;;;;;;;2.71;100.00;101302.56;5071071;28;20284;-74
2023/01/25 03:20:41;;;;;;;22.73;11.77;;;;;;;2.69;100.00;101299.16;5071023;28;20063;-74
2023/01/25 03:23:06;;;;;;;25.70;12.90;;;;;;;2.80;100.00;101290.59;5071238;28;20032;-74
2023/01/25 03:25:32;;;;;;;22.17;11.90;;;;;;;2.78;100.00;101295.09;5071098;28;20056;-75
2023/01/25 03:27:57;;;;;;;26.33;14.00;;;;;;;2.69;100.00;101293.03;5052510;28;20032;-75
2023/01/25 03:30:23;;;;;;;26.77;12.80;;;;;;;2.67;100.00;101292.28;5071085;28;20096;-75
2023/01/25 03:32:49;;;;;;;23.90;12.37;;;;;;;2.71;100.00;101297.28;5070935;28;20391;-75
2023/01/25 03:35:15;;;;;;;25.80;12.87;;;;;;;2.59;100.00;101287.47;5053009;28;20060;-75
2023/01/25 03:37:40;;;;;;;26.07;13.37;;;;;;;2.76;100.00;101283.81;5071010;28;20292;-75
2023/01/25 03:40:07;;;;;;;27.27;13.17;;;;;;;2.66;100.00;101291.41;5071066;28;20078;-75
2023/01/25 03:42:32;;;;;;;27.30;13.27;;;;;;;2.56;100.00;101292.94;5070911;28;20030;-74
2023/01/25 03:44:58;;;;;;;24.83;12.90;;;;;;;2.44;100.00;101280.47;5070972;28;20265;-75
2023/01/25 03:47:23;;;;;;;24.90;12.67;;;;;;;2.57;100.00;101293.78;5070921;28;20031;-75
2023/01/25 03:49:49;;;;;;;26.07;13.10;;;;;;;2.51;100.00;101287.94;5071652;28;20086;-75
2023/01/25 03:52:14;;;;;;;24.90;12.53;;;;;;;2.48;100.00;101276.72;5074828;28;20495;-75
2023/01/25 03:54:40;;;;;;;26.53;13.53;;;;;;;2.43;100.00;101270.84;5074691;28;20035;-75
2023/01/25 03:57:05;;;;;;;27.80;13.97;;;;;;;2.63;100.00;101267.03;5074561;28;20136;-75
2023/01/25 03:59:30;;;;;;;26.43;13.30;;;;;;;2.73;100.00;101271.66;5074316;28;20045;-75
2023/01/25 04:01:56;;;;;;;28.20;13.13;;;;;;;2.57;100.00;101265.59;5056612;28;20024;-75
2023/01/25 04:04:21;;;;;;;27.27;13.87;;;;;;;2.50;100.00;101266.91;5074414;28;20471;-75
2023/01/25 04:06:50;;;;;;;27.43;13.73;;;;;;;2.47;100.00;101264.47;5074295;28;20479;-75
2023/01/25 04:09:15;;;;;;;28.20;14.67;;;;;;;2.56;100.00;101263.91;5074216;28;20025;-74
2023/01/25 04:11:41;;;;;;;27.40;13.17;;;;;;;2.65;100.00;101249.31;5056265;28;20331;-75
2023/01/25 04:14:06;;;;;;;26.57;13.93;;;;;;;2.70;100.00;101260.41;5074255;28;20027;-74
2023/01/25 04:16:32;;;;;;;30.53;14.30;;;;;;;2.65;100.00;101255.44;5074224;28;20039;-74
2023/01/25 04:18:57;;;;;;;26.23;12.70;;;;;;;2.63;100.00;101256.47;5056092;28;20035;-75
2023/01/25 04:21:23;;;;;;;26.40;13.13;;;;;;;2.63;100.00;101254.69;5056226;28;20058;-74
2023/01/25 04:23:48;;;;;;;28.50;13.20;;;;;;;2.54;100.00;101245.50;5073894;28;20103;-75
2023/01/25 04:26:14;;;;;;;28.73;13.50;;;;;;;2.52;100.00;101242.16;5056100;28;20033;-74
2023/01/25 04:28:40;;;;;;;27.00;13.03;;;;;;;2.45;100.00;101247.88;5073913;28;20469;-74
2023/01/25 04:31:06;;;;;;;26.47;13.63;;;;;;;2.36;100.00;101248.44;5073861;28;20059;-74
2023/01/25 04:33:32;;;;;;;28.17;14.67;;;;;;;2.37;100.00;101242.22;5074006;28;20112;-75
2023/01/25 04:35:58;;;;;;;29.73;14.77;;;;;;;2.42;100.00;101248.88;5073859;28;20024;-75
2023/01/25 04:38:24;;;;;;;31.87;14.47;;;;;;;2.36;100.00;101245.78;5073783;28;20241;-75
2023/01/25 04:40:51;;;;;;;28.33;14.20;;;;;;;2.44;100.00;101246.16;5073735;28;20028;-75
2023/01/25 04:43:18;;;;;;;30.90;15.30;;;;;;;2.44;100.00;101240.88;5055832;28;20032;-74
2023/01/25 04:45:44;;;;;;;28.53;14.57;;;;;;;2.40;100.00;101240.25;5055731;28;20265;-75
2023/01/25 04:48:12;;;;;;;29.23;14.17;;;;;;;2.36;100.00;101238.72;5073667;28;20281;-74
2023/01/25 04:50:40;;;;;;;29.57;13.97;;;;;;;2.47;100.00;101231.00;5073526;28;20257;-74
2023/01/25 04:53:07;;;;;;;31.17;14.73;;;;;;;2.49;100.00;101238.84;5073592;28;20285;-75
2023/01/25 04:55:33;;;;;;;29.40;14.33;;;;;;;2.47;100.00;101240.72;5073683;28;20754;-75
2023/01/25 04:58:03;;;;;;;28.10;13.90;;;;;;;2.41;100.00;101231.41;5073286;28;20281;-75
2023/01/25 05:00:30;;;;;;;26.17;13.80;;;;;;;2.51;100.00;101236.94;5073127;28;20292;-75
2023/01/25 05:02:55;;;;;;;28.33;13.33;;;;;;;2.43;100.00;101232.13;5073549;28;20753;-75
2023/01/25 05:05:21;;;;;;;26.63;13.47;;;;;;;2.38;100.00;101242.13;5085871;28;20343;-75
2023/01/25 05:07:46;;;;;;;27.70;13.40;;;;;;;2.51;100.00;101231.69;5075331;28;20038;-74
2023/01/25 05:10:12;;;;;;;27.60;13.70;;;;;;;2.48;100.00;101230.06;5093532;28;20024;-74
2023/01/25 05:12:38;;;;;;;27.27;12.50;;;;;;;2.44;100.00;101225.91;5093563;28;20035;-74
2023/01/25 05:15:04;;;;;;;31.13;15.03;;;;;;;2.45;100.00;101226.75;5093463;28;20257;-74
2023/01/25 05:17:30;;;;;;;25.40;13.07;;;;;;;2.42;100.00;101226.97;5093439;28;20382;-75
2023/01/25 05:19:55;;;;;;;25.57;13.30;;;;;;;2.44;100.00;101228.53;5093219;28;20309;-75
2023/01/25 05:22:21;;;;;;;27.47;13.73;;;;;;;2.41;100.00;101239.31;5093458;28;20027;-74
2023/01/25 05:24:47;;;;;;;28.20;13.07;;;;;;;2.42;100.00;101234.88;5093347;28;20028;-75
2023/01/25 05:27:16;;;;;;;28.07;14.53;;;;;;;2.44;100.00;101240.88;5093047;28;20036;-74
2023/01/25 05:29:43;;;;;;;27.53;14.57;;;;;;;2.36;100.00;101232.59;5093059;28;20264;-74
2023/01/25 05:32:15;;;;;;;29.63;13.57;;;;;;;2.44;100.00;101243.53;5074187;28;20827;-75
2023/01/25 05:34:41;;;;;;;27.30;13.50;;;;;;;2.51;100.00;101231.69;5093006;28;20321;-74
2023/01/25 05:37:08;;;;;;;27.70;12.77;;;;;;;2.51;100.00;101235.16;5092902;28;20276;-74
2023/01/25 05:39:33;;;;;;;27.57;13.10;;;;;;;2.43;100.00;101226.84;5092932;28;20355;-75
2023/01/25 05:41:59;;;;;;;27.17;13.63;;;;;;;2.38;100.00;101230.72;5092753;28;20406;-74
2023/01/25 05:44:25;;;;;;;26.57;12.23;;;;;;;2.47;100.00;101246.00;5074640;28;20055;-75
2023/01/25 05:46:51;;;;;;;26.10;13.10;;;;;;;2.38;100.00;101250.03;5092692;28;20028;-74
2023/01/25 05:49:18;;;;;;;27.63;13.53;;;;;;;2.26;100.00;101240.22;5092535;28;20498;-75
2023/01/25 05:51:44;;;;;;;26.90;12.93;;;;;;;2.26;100.00;101249.94;5092716;28;20107;-75
2023/01/25 05:54:15;;;;;;;29.93;13.30;;;;;;;2.28;100.00;101251.53;5092663;28;20257;-75
2023/01/25 05:56:41;;;;;;;26.23;12.73;;;;;;;2.45;100.00;101247.88;5092590;28;20296;-74
2023/01/25 05:59:09;;;;;;;25.53;13.10;;;;;;;2.29;100.00;101247.13;5074127;28;20284;-75
2023/01/25 06:01:35;;;;;;;28.03;13.30;;;;;;;2.37;100.00;101253.63;5092471;28;20863;-75
2023/01/25 06:04:01;;;;;;;25.87;12.53;;;;;;;2.52;100.00;101259.75;5092503;28;20268;-75
2023/01/25 06:06:26;;;;;;;25.77;12.77;;;;;;;2.42;100.00;101256.00;5092363;28;20038;-75
2023/01/25 06:08:52;;;;;;;25.07;12.90;;;;;;;2.51;100.00;101258.06;5092186;28;20036;-75
2023/01/25 06:11:20;;;;;;;26.10;12.33;;;;;;;2.50;100.00;101261.66;5092445;28;20036;-75
2023/01/25 06:13:46;;;;;;;24.20;13.37;;;;;;;2.46;100.00;101260.97;5091754;28;20051;-75
2023/01/25 06:16:12;;;;;;;27.63;14.13;;;;;;;2.42;100.00;101261.28;5092317;28;20260;-74
2023/01/25 06:18:38;;;;;;;29.50;14.50;;;;;;;2.39;100.00;101264.94;5092143;28;20028;-75
2023/01/25 06:21:05;;;;;;;28.80;14.53;;;;;;;2.33;100.00;101260.00;5092033;28;20379;-75
2023/01/25 06:23:30;;;;;;;30.80;13.63;;;;;;;2.37;100.00;101260.69;5074025;28;20295;-75
2023/01/25 06:26:00;;;;;;;26.87;13.77;;;;;;;2.26;100.00;101255.22;5091923;28;20296;-75
2023/01/25 06:28:30;;;;;;;26.27;13.53;;;;;;;2.28;100.00;101259.44;5091788;28;20020;-73
2023/01/25 06:30:55;;;;;;;27.57;13.63;;;;;;;2.23;100.00;101248.31;5091473;28;20263;-73
2023/01/25 06:33:21;;;;;;;29.00;14.07;;;;;;;2.23;100.00;101253.59;5090627;28;20268;-73
2023/01/25 06:35:46;;;;;;;31.13;14.20;;;;;;;2.19;100.00;101247.63;5071040;28;20111;-73
2023/01/25 06:38:12;;;;;;;30.33;13.97;;;;;;;2.18;100.00;101253.03;5071347;28;20016;-73
2023/01/25 06:40:37;;;;;;;28.23;14.37;;;;;;;2.23;100.00;101247.47;5071458;28;20448;-73
2023/01/25 06:43:10;;;;;;;30.93;14.27;;;;;;;2.25;100.00;101235.03;5071522;28;20044;-73
2023/01/25 06:45:37;;;;;;;29.45;14.52;;;;;;;2.22;100.00;101243.13;5071483;28;20044;-73
2023/01/25 06:48:03;;;;;;;31.07;14.57;;;;;;;2.21;100.00;101244.06;5070908;28;20024;-73
2023/01/25 06:50:29;;;;;;;30.13;13.63;;;;;;;2.48;100.00;101239.78;5070626;28;20262;-73
2023/01/25 06:52:55;;;;;;;27.93;14.13;;;;;;;2.35;100.00;101225.63;5071229;28;20051;-73
2023/01/25 06:55:21;;;;;;;27.83;13.57;;;;;;;2.36;100.00;101228.19;5071310;28;20272;-73
2023/01/25 06:57:47;;;;;;;27.07;13.30;;;;;;;2.30;100.00;101231.19;5049699;28;20290;-74
2023/01/25 07:00:15;;;;;;;29.43;14.03;;;;;;;2.36;100.00;101230.81;5051148;28;20261;-73
2023/01/25 07:02:41;;;;;;;27.37;14.40;;;;;;;2.35;100.00;101223.84;5050686;28;20277;-73
2023/01/25 07:05:08;;;;;;;26.13;13.20;;;;;;;2.36;100.00;101224.69;5051137;28;20733;-72
2023/01/25 07:07:34;;;;;;;27.57;13.60;;;;;;;2.45;100.00;101232.88;5050996;28;20297;-73
2023/01/25 07:10:00;;;;;;;28.90;14.30;;;;;;;2.37;100.00;101229.88;5051044;28;20289;-72
2023/01/25 07:12:29;;;;;;;29.97;14.30;;;;;;;2.44;100.00;101231.19;5051050;28;20262;-73
2023/01/25 07:14:55;;;;;;;27.90;14.43;;;;;;;2.45;100.00;101224.97;5049912;28;20262;-73
2023/01/25 07:17:21;;;;;;;27.83;14.47;;;;;;;2.44;100.00;101238.25;5050977;28;20254;-72
2023/01/25 07:19:46;;;;;;;25.27;13.50;;;;;;;2.55;100.00;101246.34;5051063;28;20036;-72
2023/01/25 07:22:12;;;;;;;29.73;14.07;;;;;;;2.45;100.00;101238.16;5050840;28;20021;-72
2023/01/25 07:24:38;;;;;;;25.97;13.00;;;;;;;2.39;100.00;101240.34;5053255;28;20032;-72
2023/01/25 07:27:03;;;;;;;28.23;14.13;;;;;;;2.57;100.00;101249.75;5054967;28;20147;-73
2023/01/25 07:29:29;;;;;;;27.53;14.07;;;;;;;2.42;100.00;101242.81;5055492;28;20028;-73
2023/01/25 07:31:56;;;;;;;28.23;13.63;;;;;;;2.33;100.00;101238.06;5054985;28;20098;-73
2023/01/25 07:34:22;;;;;;;27.10;13.90;;;;;;;2.35;100.00;101239.66;5054990;28;20272;-73
2023/01/25 07:36:47;;;;;;;28.90;14.27;;;;;;;2.42;100.00;101226.97;5053410;28;20257;-73
2023/01/25 07:39:13;;;;;;;29.30;13.70;;;;;;;2.61;100.00;101234.59;5054866;28;20097;-73
2023/01/25 07:41:39;;;;;;;29.03;13.93;;;;;;;2.43;100.00;101228.63;5054773;28;20032;-73
2023/01/25 07:44:05;;;;;;;27.07;12.83;;;;;;;2.50;100.00;101236.09;5054709;28;20028;-73
2023/01/25 07:46:32;;;;;;;28.30;13.13;;;;;;;2.51;100.00;101229.03;5054677;28;20728;-73
2023/01/25 07:48:57;;;;;;;28.50;14.37;;;;;;;2.60;100.00;101241.66;5054677;28;20029;-73
2023/01/25 07:51:28;;;;;;;26.80;13.33;;;;;;;2.58;100.00;101238.25;5054666;28;20270;-73
2023/01/25 07:53:59;;;;;;;27.17;13.67;;;;;;;2.63;100.00;101240.63;5054658;28;20488;-73
2023/01/25 07:56:28;;;;;;;25.33;13.23;;;;;;;2.65;100.00;101230.84;5054646;28;20344;-73
2023/01/25 07:58:55;;;;;;;27.87;13.53;;;;;;;2.62;100.00;101231.88;5052919;28;20281;-73
2023/01/25 08:01:23;;;;;;;27.43;13.47;;;;;;;2.64;100.00;101223.84;5054279;28;20767;-73
2023/01/25 08:03:49;;;;;;;26.60;13.97;;;;;;;2.59;100.00;101220.63;5054582;28;20269;-73
2023/01/25 08:06:16;;;;;;;25.73;14.17;;;;;;;2.61;100.00;101224.03;5054391;28;20260;-73
2023/01/25 08:08:45;;;;;;;26.10;13.33;;;;;;;2.54;100.00;101226.19;5054390;28;20282;-72
2023/01/25 08:11:18;;;;;;;28.60;14.13;;;;;;;2.56;100.00;101216.38;5054356;28;20269;-73
2023/01/25 08:13:46;;;;;;;32.43;14.23;;;;;;;2.74;100.00;101217.91;5054487;28;20636;-72
2023/01/25 08:16:16;;;;;;;29.57;14.50;;;;;;;2.69;100.00;101214.69;5054010;28;20264;-73
2023/01/25 08:18:45;;;;;;;30.93;14.80;;;;;;;2.68;100.00;101222.69;5054369;28;20257;-72
2023/01/25 08:21:11;;;;;;;30.90;14.20;;;;;;;2.73;100.00;101223.28;5053957;28;20293;-73
2023/01/25 08:23:36;;;;;;;28.03;15.17;;;;;;;2.70;100.00;101221.66;5053060;28;20826;-73
2023/01/25 08:26:04;;;;;;;29.77;14.77;;;;;;;2.59;100.00;101223.28;5053062;28;20053;-73
2023/01/25 08:28:29;;;;;;;33.33;15.07;;;;;;;2.52;100.00;101221.03;5053585;28;20037;-73
2023/01/25 08:31:05;;;;;;;31.87;15.47;;;;;;;2.45;100.00;101216.19;5053812;28;20273;-73
2023/01/25 08:33:31;;;;;;;33.67;16.97;;;;;;;2.51;100.00;101210.56;5053995;28;20024;-73
2023/01/25 08:35:56;;;;;;;33.23;16.07;;;;;;;2.42;100.00;101211.94;5053054;28;20273;-73
2023/01/25 08:38:22;;;;;;;34.33;16.20;;;;;;;2.49;100.00;101215.09;5053884;28;20090;-74
2023/01/25 08:40:48;;;;;;;33.90;16.03;;;;;;;2.54;100.00;101215.63;5053923;28;20126;-74
2023/01/25 08:43:13;;;;;;;35.30;17.30;;;;;;;2.56;100.00;101213.75;5053709;28;20117;-77
2023/01/25 08:45:39;;;;;;;37.43;17.17;;;;;;;2.55;100.00;101204.97;5053802;28;20024;-76
2023/01/25 08:48:04;;;;;;;35.90;17.13;;;;;;;2.56;100.00;101200.56;5053705;28;20021;-76
2023/01/25 08:50:30;;;;;;;34.77;17.13;;;;;;;2.55;100.00;101197.06;5053928;28;20510;-76
2023/01/25 08:52:55;;;;;;;33.10;16.70;;;;;;;2.67;100.00;101199.88;5053774;28;20033;-76
2023/01/25 08:55:21;;;;;;;32.83;15.57;;;;;;;2.76;100.00;101197.53;5053749;28;20025;-76
2023/01/25 08:57:46;;;;;;;33.40;16.43;;;;;;;2.75;100.00;101189.72;5058458;28;20154;-77
2023/01/25 09:00:13;;;;;;;33.43;15.83;;;;;;;2.76;100.00;101191.41;5073734;28;20070;-76
2023/01/25 09:02:38;;;;;;;29.80;14.73;;;;;;;2.82;100.00;101196.28;5073743;28;20479;-75
2023/01/25 09:05:04;;;;;;;33.10;16.00;;;;;;;2.90;100.00;101204.56;5073401;28;20264;-76
2023/01/25 09:07:31;;;;;;;32.87;16.00;;;;;;;2.78;100.00;101193.00;5073368;28;20499;-76
2023/01/25 09:09:58;;;;;;;32.50;15.53;;;;;;;2.65;100.00;101196.53;5073366;28;20374;-76
2023/01/25 09:12:23;;;;;;;33.70;16.30;;;;;;;2.75;100.00;101209.03;5055421;28;20643;-76
2023/01/25 09:14:49;;;;;;;35.57;16.57;;;;;;;2.77;100.00;101199.22;5073296;28;20265;-76
2023/01/25 09:17:14;;;;;;;34.87;16.47;;;;;;;2.73;100.00;101194.25;5073218;28;20039;-76
2023/01/25 09:19:41;;;;;;;28.90;14.47;;;;;;;2.78;100.00;101202.69;5055251;28;20376;-76
2023/01/25 09:22:07;;;;;;;34.37;16.50;;;;;;;2.69;100.00;101198.00;5073007;28;20532;-76
2023/01/25 09:24:33;;;;;;;35.90;17.40;;;;;;;2.76;100.00;101194.91;5073223;28;20340;-75
2023/01/25 09:26:59;;;;;;;33.47;15.30;;;;;;;2.78;100.00;101189.50;5072742;28;20035;-76
2023/01/25 09:29:25;;;;;;;33.03;15.67;;;;;;;2.72;100.00;101184.63;5073025;28;20288;-76
2023/01/25 09:31:51;;;;;;;30.30;15.33;;;;;;;2.62;100.00;101191.41;5072769;28;20260;-76
2023/01/25 09:34:17;;;;;;;31.67;16.23;;;;;;;2.57;100.00;101190.84;5072299;28;20032;-76
2023/01/25 09:36:43;;;;;;;35.10;15.87;;;;;;;2.75;100.00;101180.00;5054805;28;20360;-76
2023/01/25 09:39:12;;;;;;;30.07;15.10;;;;;;;2.78;100.00;101181.56;5072582;28;20361;-76
2023/01/25 09:41:44;;;;;;;32.00;16.00;;;;;;;2.81;100.00;101184.03;5072862;28;20032;-76
2023/01/25 09:44:34;;;;;;;27.60;13.97;;;;;;;2.78;100.00;101185.06;5072429;28;20269;-76
2023/01/25 09:47:22;;;;;;;30.13;15.10;;;;;;;2.82;100.00;101178.66;5071678;28;20267;-76
2023/01/25 09:50:00;;;;;;;28.00;14.67;;;;;;;2.79;100.00;101176.19;5054221;28;20296;-76
2023/01/25 09:52:59;;;;;;;27.83;13.97;;;;;;;2.81;100.00;101170.81;5071837;28;20268;-76
2023/01/25 09:55:28;;;;;;;31.60;15.50;;;;;;;2.85;100.00;101162.63;5071681;28;20372;-76
2023/01/25 09:57:58;;;;;;;28.30;13.00;;;;;;;2.88;100.00;101157.13;5071547;28;20406;-76
2023/01/25 10:00:38;;;;;;;28.30;14.20;;;;;;;2.94;100.00;101155.06;5053860;28;20281;-76
2023/01/25 10:03:22;;;;;;;29.30;13.30;;;;;;;2.91;100.00;101154.31;5071572;28;20291;-72
2023/01/25 10:05:51;;;;;;;28.35;13.13;;;;;;;2.99;100.00;101147.69;5054147;28;20360;-72
2023/01/25 10:08:38;;;;;;;27.27;13.00;;;;;;;2.91;100.00;101140.25;5071654;28;20028;-71
2023/01/25 10:11:10;;;;;;;27.77;13.70;;;;;;;2.97;100.00;101136.38;5071847;28;20338;-72
2023/01/25 10:13:36;;;;;;;28.77;13.83;;;;;;;3.07;100.00;101138.31;5071776;28;20257;-73
2023/01/25 10:16:06;;;;;;;26.73;13.50;;;;;;;3.10;100.00;101134.66;5071633;28;20740;-73
2023/01/25 10:18:53;;;;;;;31.53;14.67;;;;;;;3.11;100.00;101131.91;5071720;28;20034;-73
2023/01/25 10:21:41;;;;;;;29.53;14.80;;;;;;;3.17;100.00;101125.34;5071694;28;20269;-73
2023/01/25 10:24:28;;;;;;;26.20;12.87;;;;;;;3.19;100.00;101121.66;5071816;28;20253;-73
2023/01/25 10:27:22;;;;;;;27.03;13.50;;;;;;;3.17;100.00;101106.88;5071947;28;20372;-73
2023/01/25 10:29:51;;;;;;;25.48;13.02;;;;;;;3.26;100.00;101108.88;5071604;28;20272;-72
2023/01/25 10:32:18;;;;;;;24.33;11.90;;;;;;;3.31;100.00;101108.59;5071570;28;20493;-73
2023/01/25 10:34:51;;;;;;;24.23;11.80;;;;;;;3.15;100.00;101095.53;5071426;28;20265;-73
2023/01/25 10:37:30;;;;;;;25.55;12.90;;;;;;;3.15;100.00;101098.19;5053533;28;20257;-73
2023/01/25 10:40:14;;;;;;;23.93;12.37;;;;;;;3.19;100.00;101091.75;5072119;28;20502;-77
2023/01/25 10:42:49;;;;;;;23.83;12.33;;;;;;;3.21;100.00;101087.22;5053855;28;20269;-77
2023/01/25 10:45:16;;;;;;;18.87;9.90;;;;;;;3.22;100.00;101088.94;5071769;28;20740;-77
2023/01/25 10:47:49;;;;;;;18.77;9.93;;;;;;;3.16;100.00;101079.59;5071796;28;20281;-76
2023/01/25 10:50:42;;;;;;;;;;;;;;;3.05;100.00;101079.47;5054211;28;20694;-77
2023/01/25 10:53:21;;;;;;;20.13;10.00;;;;;;;3.14;100.00;101072.72;5071506;28;19912;-76
2023/01/25 10:56:12;;;;;;;19.40;10.40;;;;;;;2.96;100.00;101073.94;5071956;28;20253;-77
2023/01/25 10:58:44;;;;;;;19.57;10.93;;;;;;;2.99;100.00;101066.69;5071302;28;20347;-79
2023/01/25 11:01:24;;;;;;;18.93;9.67;;;;;;;3.00;100.00;101070.16;5071701;28;20653;-77
2023/01/25 11:03:50;;;;;;;21.17;10.53;;;;;;;3.10;100.00;101065.97;5071427;28;20357;-77
2023/01/25 11:06:37;;;;;;;23.47;11.43;;;;;;;3.17;100.00;101068.09;5071912;28;20269;-77
2023/01/25 11:09:37;;;;;;;23.63;11.80;;;;;;;3.10;100.00;101058.03;5071675;28;20323;-76
2023/01/25 11:12:14;;;;;;;25.13;11.90;;;;;;;3.08;100.00;101047.56;5063472;28;20276;-77
2023/01/25 11:14:39;;;;;;;25.30;12.93;;;;;;;3.06;100.00;101048.63;5067560;28;20337;-77
2023/01/25 11:17:30;;;;;;;20.17;10.00;;;;;;;3.02;100.00;101041.84;5071794;28;20336;-77